Time;durP1;ratioP1;P1;durP2;ratioP2;P2;SDS_P1;SDS_P2;PMS_P1;PMS_P2;Temp;Humidity;BMP_temperature;BMP_pressure;BME280_temperature;BME280_humidity;BME280_pressure;Samples;Min_cycle;Max_cycle;Signal;HPM_P1;HPM_P2
2022/09/20 00:01:46;;;;;;;3.95;1.98;;;4.50;99.90;;;;;;8307904;28;20037;-80
2022/09/20 00:05:47;;;;;;;2.50;1.77;;;4.60;99.90;;;;;;8330782;28;20096;-80
2022/09/20 00:09:47;;;;;;;2.38;1.52;;;4.60;99.90;;;;;;8309771;28;20032;-79
2022/09/20 00:13:50;;;;;;;5.50;1.90;;;4.60;99.90;;;;;;8327778;28;20025;-80
2022/09/20 00:17:50;;;;;;;3.05;1.90;;;4.50;99.90;;;;;;8313133;28;20444;-80
2022/09/20 00:21:51;;;;;;;3.25;1.67;;;4.50;99.90;;;;;;8307842;28;20025;-80
2022/09/20 00:26:00;;;;;;;2.50;2.08;;;4.60;99.90;;;;;;8317259;28;20029;-80
2022/09/20 00:30:00;;;;;;;3.88;1.90;;;4.60;99.90;;;;;;8314565;28;20065;-80
2022/09/20 00:38:20;;;;;;;4.78;1.75;;;4.50;99.90;;;;;;8334980;28;20079;-82
2022/09/20 00:42:27;;;;;;;3.25;2.00;;;4.40;99.90;;;;;;8329891;28;20033;-79
2022/09/20 00:46:35;;;;;;;4.35;2.10;;;4.40;99.90;;;;;;8316879;28;20029;-80
2022/09/20 00:50:45;;;;;;;2.42;1.98;;;4.40;99.90;;;;;;8331368;28;20048;-80
2022/09/20 00:54:47;;;;;;;5.25;1.85;;;4.20;99.90;;;;;;8314193;28;20064;-80
2022/09/20 00:59:12;;;;;;;6.05;1.80;;;4.10;99.90;;;;;;8337378;28;20033;-80
2022/09/20 01:03:15;;;;;;;3.33;1.83;;;4.00;99.90;;;;;;8314187;28;20021;-79
2022/09/20 01:07:21;;;;;;;3.03;2.08;;;4.10;99.90;;;;;;8323385;28;20065;-79
2022/09/20 01:11:21;;;;;;;2.58;1.85;;;4.10;99.90;;;;;;8312194;28;20120;-80
2022/09/20 01:15:24;;;;;;;2.95;2.03;;;4.00;99.90;;;;;;8316753;28;20695;-80
2022/09/20 01:19:36;;;;;;;5.05;1.88;;;4.00;99.90;;;;;;8316180;28;20025;-80
2022/09/20 01:24:02;;;;;;;3.00;1.92;;;3.80;99.90;;;;;;8313228;28;20286;-80
2022/09/20 01:28:03;;;;;;;3.80;1.80;;;3.70;99.90;;;;;;8332805;28;20021;-80
2022/09/20 01:32:11;;;;;;;5.25;2.00;;;3.60;99.90;;;;;;8330194;28;20412;-79
2022/09/20 01:36:17;;;;;;;5.15;1.92;;;3.50;99.90;;;;;;8316192;28;20453;-80
2022/09/20 01:40:56;;;;;;;4.07;1.67;;;3.50;99.90;;;;;;8307412;28;20034;-79
2022/09/20 01:45:07;;;;;;;5.18;2.30;;;3.50;99.90;;;;;;8276410;28;20036;-80
2022/09/20 01:49:37;;;;;;;6.22;1.98;;;3.70;99.90;;;;;;8316895;28;20116;-80
2022/09/20 01:53:38;;;;;;;5.15;2.13;;;3.70;99.90;;;;;;8312706;28;20092;-78
2022/09/20 01:57:54;;;;;;;1.70;1.48;;;3.60;99.90;;;;;;8333513;28;20049;-80
2022/09/20 02:02:41;;;;;;;4.80;1.75;;;3.70;99.90;;;;;;8307177;28;20107;-80
2022/09/20 02:06:55;;;;;;;2.95;1.98;;;3.60;99.90;;;;;;8247531;28;20025;-80
2022/09/20 02:11:02;;;;;;;2.45;1.90;;;3.70;99.90;;;;;;8308133;28;20018;-80
2022/09/20 02:15:16;;;;;;;3.67;1.95;;;3.80;99.90;;;;;;8315198;28;20025;-80
2022/09/20 02:19:45;;;;;;;2.60;2.00;;;3.90;99.90;;;;;;8311935;28;20057;-80
2022/09/20 02:23:46;;;;;;;2.25;1.70;;;3.90;99.90;;;;;;8312646;28;20466;-80
2022/09/20 02:28:06;;;;;;;3.72;1.50;;;4.00;99.90;;;;;;8319081;28;20034;-80
2022/09/20 02:32:27;;;;;;;4.30;1.52;;;3.90;99.90;;;;;;8309958;28;20092;-79
2022/09/20 02:36:39;;;;;;;2.70;1.70;;;4.10;99.90;;;;;;8332183;28;20108;-80
2022/09/20 02:40:58;;;;;;;3.03;1.30;;;4.20;99.90;;;;;;8310038;28;20461;-80
2022/09/20 02:45:25;;;;;;;2.20;1.42;;;4.20;99.90;;;;;;8312282;28;20019;-79
2022/09/20 02:49:28;;;;;;;1.75;1.33;;;4.30;99.90;;;;;;8312844;28;20052;-80
2022/09/20 02:54:00;;;;;;;3.38;1.63;;;4.40;99.90;;;;;;8309919;28;20021;-80
2022/09/20 02:58:22;;;;;;;1.58;1.17;;;4.50;99.90;;;;;;8332201;28;20555;-80
2022/09/20 03:02:30;;;;;;;2.50;1.45;;;4.50;99.90;;;;;;8305448;28;20029;-80
2022/09/20 03:07:14;;;;;;;3.60;1.40;;;4.60;99.90;;;;;;8313342;28;20026;-80
2022/09/20 03:11:18;;;;;;;2.22;1.60;;;4.70;99.90;;;;;;8308334;28;20147;-80
2022/09/20 03:15:33;;;;;;;1.58;1.23;;;4.80;99.90;;;;;;8314014;28;20044;-80
2022/09/20 03:20:05;;;;;;;7.55;1.63;;;4.90;99.90;;;;;;8312642;28;20112;-80
2022/09/20 03:24:29;;;;;;;4.53;2.08;;;5.00;99.90;;;;;;8311959;28;20029;-80
2022/09/20 03:28:49;;;;;;;5.22;1.95;;;5.00;99.90;;;;;;8314151;28;20036;-80
2022/09/20 03:33:22;;;;;;;4.68;2.30;;;5.10;99.90;;;;;;8321543;28;20500;-81
2022/09/20 03:38:08;;;;;;;3.33;2.05;;;5.10;99.90;;;;;;8326951;28;20409;-80
2022/09/20 03:42:22;;;;;;;4.18;2.20;;;5.30;99.90;;;;;;8307273;28;20029;-83
2022/09/20 03:46:42;;;;;;;3.60;2.20;;;5.30;99.90;;;;;;8313265;28;20033;-81
2022/09/20 03:50:55;;;;;;;;;;;5.30;99.90;;;;;;8309107;28;20024;-81
2022/09/20 03:55:14;;;;;;;2.88;1.88;;;5.40;99.90;;;;;;8310631;28;20380;-81
2022/09/20 03:59:40;;;;;;;4.95;2.17;;;5.40;99.90;;;;;;8316234;28;20043;-81
2022/09/20 04:03:56;;;;;;;8.48;2.42;;;5.40;99.90;;;;;;8315004;28;20080;-81
2022/09/20 04:08:17;;;;;;;3.38;2.00;;;5.50;99.90;;;;;;8323325;28;20030;-81
2022/09/20 04:12:54;;;;;;;3.95;1.88;;;5.60;99.90;;;;;;8311719;28;20394;-80
2022/09/20 04:17:14;;;;;;;2.65;2.00;;;5.50;99.90;;;;;;8336304;28;20029;-80
2022/09/20 04:21:33;;;;;;;3.55;2.08;;;5.50;99.90;;;;;;8331246;28;20033;-80
2022/09/20 04:25:40;;;;;;;4.95;2.40;;;5.50;99.90;;;;;;8334131;28;20102;-80
2022/09/20 04:30:20;;;;;;;3.03;1.95;;;5.50;99.90;;;;;;8317923;28;20298;-78
2022/09/20 04:36:27;;;;;;;5.43;2.22;;;5.50;99.90;;;;;;8318175;28;20040;-80
2022/09/20 04:38:54;;;;;;;3.10;2.10;;;5.40;99.90;;;;;;8328711;28;20064;-81
2022/09/20 04:43:06;;;;;;;7.15;3.28;;;5.60;99.90;;;;;;8310483;28;20028;-81
2022/09/20 04:47:54;;;;;;;5.00;2.92;;;5.50;99.90;;;;;;8360347;22;20053;-79
2022/09/20 04:52:02;;;;;;;8.40;2.85;;;5.50;99.90;;;;;;8274934;28;20282;-80
2022/09/20 04:56:16;;;;;;;3.83;2.70;;;5.70;99.90;;;;;;8294507;28;20083;-80
2022/09/20 05:00:36;;;;;;;6.03;3.35;;;5.70;99.90;;;;;;8277426;28;20416;-80
2022/09/20 05:05:24;;;;;;;7.43;3.90;;;5.70;99.90;;;;;;8304134;28;20025;-80
2022/09/20 05:09:55;;;;;;;9.02;5.13;;;5.70;99.90;;;;;;8287727;28;20066;-79
2022/09/20 05:14:15;;;;;;;5.70;3.88;;;5.90;99.90;;;;;;8301877;28;20026;-80
2022/09/20 05:18:48;;;;;;;10.15;3.70;;;6.20;99.90;;;;;;8302292;28;20025;-80
2022/09/20 05:23:07;;;;;;;5.32;2.88;;;5.90;99.90;;;;;;8293653;28;20641;-80
2022/09/20 05:27:28;;;;;;;5.55;3.20;;;5.80;99.90;;;;;;8279902;28;20056;-80
2022/09/20 05:31:53;;;;;;;6.55;2.85;;;5.80;99.90;;;;;;8278794;28;20022;-79
2022/09/20 05:36:20;;;;;;;7.03;3.70;;;5.90;99.90;;;;;;8278952;28;20080;-80
2022/09/20 05:41:08;;;;;;;12.18;3.70;;;6.10;99.90;;;;;;8282428;28;20044;-81
2022/09/20 05:45:44;;;;;;;11.98;5.97;;;6.20;99.90;;;;;;8257498;28;20030;-81
2022/09/20 05:50:04;;;;;;;9.00;4.68;;;6.30;99.90;;;;;;8289812;28;20093;-81
2022/09/20 05:54:32;;;;;;;8.18;2.83;;;6.70;99.90;;;;;;8292542;28;20053;-79
2022/09/20 05:58:46;;;;;;;4.80;2.10;;;7.20;99.90;;;;;;8309842;28;20493;-81
2022/09/20 06:03:09;;;;;;;3.80;1.70;;;7.10;99.90;;;;;;8285113;28;20520;-81
2022/09/20 06:07:35;;;;;;;7.28;2.00;;;7.10;99.90;;;;;;8289273;28;20040;-81
2022/09/20 06:11:59;;;;;;;4.47;2.00;;;6.90;99.90;;;;;;8284131;28;20567;-81
2022/09/20 06:16:03;;;;;;;3.75;2.10;;;7.00;99.90;;;;;;8286699;28;20030;-81
2022/09/20 06:20:41;;;;;;;7.03;2.30;;;7.20;99.90;;;;;;8301198;28;20040;-81
2022/09/20 06:24:48;;;;;;;6.47;2.40;;;7.50;99.90;;;;;;8289373;28;20098;-81
2022/09/20 06:28:53;;;;;;;5.32;2.30;;;8.10;99.90;;;;;;8288068;28;20025;-80
2022/09/20 06:32:58;;;;;;;5.88;2.15;;;8.20;99.90;;;;;;8281250;28;20121;-81
2022/09/20 06:41:52;;;;;;;4.80;2.15;;;8.40;99.90;;;;;;8303399;28;20044;-81
2022/09/20 06:45:53;;;;;;;5.80;2.33;;;8.90;99.90;;;;;;8304462;28;20057;-81
2022/09/20 06:49:54;;;;;;;4.40;1.88;;;9.20;99.90;;;;;;8301500;28;20033;-81
2022/09/20 06:53:56;;;;;;;5.00;1.90;;;9.30;99.90;;;;;;8320529;28;20032;-80
2022/09/20 06:57:56;;;;;;;3.05;1.88;;;9.40;99.90;;;;;;8287369;28;20026;-81
2022/09/20 07:01:57;;;;;;;3.17;1.83;;;9.50;99.90;;;;;;8275042;28;20413;-81
2022/09/20 07:05:59;;;;;;;7.05;2.08;;;9.60;99.90;;;;;;8298374;28;20029;-80
2022/09/20 07:10:00;;;;;;;5.28;1.90;;;9.80;99.90;;;;;;8292512;28;20033;-80
2022/09/20 07:14:00;;;;;;;6.10;1.95;;;10.00;99.90;;;;;;8279222;28;20121;-80
2022/09/20 07:18:01;;;;;;;5.88;1.75;;;10.50;99.90;;;;;;8281388;28;20026;-81
2022/09/20 07:22:03;;;;;;;4.22;1.45;;;11.30;99.90;;;;;;8284525;28;20052;-81
2022/09/20 07:26:03;;;;;;;5.32;1.67;;;11.60;99.90;;;;;;8294043;28;20029;-80
2022/09/20 07:30:06;;;;;;;5.28;1.70;;;11.30;99.90;;;;;;8287960;28;20441;-81
2022/09/20 07:34:06;;;;;;;4.25;1.75;;;11.20;99.90;;;;;;8292928;28;20044;-81
2022/09/20 07:38:07;;;;;;;8.20;1.98;;;11.30;99.90;;;;;;8312652;28;20025;-81
2022/09/20 07:42:08;;;;;;;6.75;2.00;;;11.30;99.90;;;;;;8287243;28;20029;-81
2022/09/20 07:46:08;;;;;;;4.85;1.70;;;11.60;99.90;;;;;;8293938;28;20121;-81
2022/09/20 07:50:10;;;;;;;5.60;1.67;;;11.90;99.90;;;;;;8285123;28;20607;-81
2022/09/20 07:54:11;;;;;;;7.35;1.92;;;11.90;99.90;;;;;;8291933;28;20022;-81
2022/09/20 07:58:11;;;;;;;8.85;2.03;;;12.10;99.90;;;;;;8290919;28;20029;-81
2022/09/20 08:02:15;;;;;;;5.75;1.80;;;12.20;99.90;;;;;;8282747;28;20056;-81
2022/09/20 08:06:17;;;;;;;9.30;2.00;;;12.20;99.90;;;;;;8307670;28;20078;-81
2022/09/20 08:10:18;;;;;;;7.60;2.17;;;12.40;99.90;;;;;;8302695;28;20052;-81
2022/09/20 08:14:19;;;;;;;4.07;1.73;;;12.50;99.90;;;;;;8289979;28;20026;-82
2022/09/20 08:18:20;;;;;;;5.32;1.80;;;12.60;99.90;;;;;;8290460;28;20433;-81
2022/09/20 08:22:22;;;;;;;3.45;1.45;;;12.50;99.90;;;;;;8281741;28;20022;-80
2022/09/20 08:26:23;;;;;;;4.32;1.98;;;12.70;99.90;;;;;;8287864;28;20064;-81
2022/09/20 08:30:24;;;;;;;5.43;1.88;;;12.60;99.90;;;;;;8280534;28;20171;-81
2022/09/20 08:34:25;;;;;;;4.55;2.15;;;12.60;99.90;;;;;;8284900;28;20408;-81
2022/09/20 08:38:28;;;;;;;5.75;1.92;;;12.90;99.90;;;;;;8287156;28;20036;-81
2022/09/20 08:42:37;;;;;;;5.40;1.90;;;13.10;99.90;;;;;;8285634;28;20078;-81
2022/09/20 08:46:43;;;;;;;4.50;1.73;;;13.60;99.90;;;;;;8296394;28;20048;-81
2022/09/20 08:50:43;;;;;;;5.35;1.70;;;13.90;99.90;;;;;;8291229;28;20029;-81
2022/09/20 08:54:44;;;;;;;5.70;2.10;;;13.50;99.90;;;;;;8297297;28;20037;-81
2022/09/20 08:58:45;;;;;;;4.38;2.42;;;13.40;99.90;;;;;;8296860;28;20029;-81
2022/09/20 09:02:49;;;;;;;7.78;3.03;;;13.50;99.90;;;;;;8288794;28;20022;-80
2022/09/20 09:06:51;;;;;;;5.47;2.58;;;13.50;99.90;;;;;;8294428;28;20088;-82
2022/09/20 09:11:07;;;;;;;4.47;2.40;;;13.50;99.90;;;;;;8287871;28;20033;-81
2022/09/20 09:15:33;;;;;;;3.17;2.03;;;13.70;99.90;;;;;;8292678;28;20038;-82
2022/09/20 09:19:47;;;;;;;3.95;1.85;;;13.90;99.90;;;;;;8281809;28;20145;-81
2022/09/20 09:23:56;;;;;;;5.18;2.10;;;13.40;99.90;;;;;;8292827;28;20029;-79
2022/09/20 09:28:06;;;;;;;5.25;2.30;;;13.20;99.90;;;;;;8310787;28;20085;-82
2022/09/20 09:32:20;;;;;;;4.07;2.00;;;13.30;99.90;;;;;;8305372;28;20057;-82
2022/09/20 09:36:24;;;;;;;4.28;2.22;;;13.10;99.90;;;;;;8321960;28;20048;-82
2022/09/20 09:40:26;;;;;;;6.20;2.35;;;13.10;99.90;;;;;;8281221;28;20057;-81
2022/09/20 09:44:34;;;;;;;5.20;2.88;;;13.30;99.90;;;;;;8289623;28;20048;-81
2022/09/20 09:48:35;;;;;;;7.25;2.97;;;13.50;99.90;;;;;;8307067;28;20026;-82
2022/09/20 09:52:36;;;;;;;5.07;2.10;;;13.10;99.90;;;;;;8283067;28;20060;-81
2022/09/20 09:56:56;;;;;;;4.65;2.30;;;14.30;99.90;;;;;;8289523;28;20732;-81
2022/09/20 10:01:00;;;;;;;4.82;2.28;;;15.60;99.90;;;;;;8289853;28;20018;-82
2022/09/20 10:05:10;;;;;;;6.13;2.58;;;15.70;99.90;;;;;;8292652;28;20026;-81
2022/09/20 10:09:27;;;;;;;4.00;2.25;;;15.30;99.90;;;;;;8308378;28;20038;-80
2022/09/20 10:14:04;;;;;;;3.70;2.15;;;14.80;99.90;;;;;;8304932;28;20086;-81
2022/09/20 10:18:49;;;;;;;5.90;1.70;;;14.80;99.90;;;;;;8322248;28;20060;-80
2022/09/20 10:23:02;;;;;;;5.18;2.30;;;16.00;99.90;;;;;;8301346;28;20053;-81
2022/09/20 10:27:33;;;;;;;4.97;2.28;;;16.20;99.90;;;;;;8295044;28;20037;-82
2022/09/20 10:31:56;;;;;;;3.57;1.90;;;16.30;99.90;;;;;;8281513;28;20057;-81
2022/09/20 10:36:24;;;;;;;5.35;2.10;;;16.10;99.90;;;;;;8303139;28;20022;-81
2022/09/20 10:45:27;;;;;;;4.95;1.65;;;14.60;99.90;;;;;;8301659;28;20041;-81
2022/09/20 10:50:11;;;;;;;5.38;2.08;;;14.50;99.90;;;;;;8289207;28;20052;-80
2022/09/20 10:54:32;;;;;;;3.42;1.85;;;13.90;99.90;;;;;;8285244;28;20060;-82
2022/09/20 10:58:51;;;;;;;2.22;1.73;;;13.20;99.90;;;;;;8298912;22;20043;-90
2022/09/20 11:03:12;;;;;;;4.85;2.20;;;13.20;99.90;;;;;;8215642;28;20033;-90
2022/09/20 11:07:22;;;;;;;3.72;1.30;;;13.70;99.90;;;;;;8223776;28;20026;-90
2022/09/20 11:11:51;;;;;;;4.30;1.50;;;14.40;99.90;;;;;;8218167;28;20029;-90
2022/09/20 11:16:05;;;;;;;3.70;1.48;;;14.70;99.90;;;;;;8228952;28;20031;-91
2022/09/20 11:20:21;;;;;;;2.92;1.17;;;14.60;99.90;;;;;;8230147;28;20037;-90
2022/09/20 11:24:40;;;;;;;2.78;1.05;;;14.80;99.90;;;;;;8234103;28;20129;-90
2022/09/20 11:28:47;;;;;;;4.13;1.00;;;16.10;99.90;;;;;;8229770;28;20026;-90
2022/09/20 11:33:09;;;;;;;3.22;1.20;;;15.90;99.90;;;;;;8222798;28;20115;-89
2022/09/20 11:37:10;;;;;;;1.60;0.77;;;14.90;99.90;;;;;;8229379;28;20023;-90
2022/09/20 11:41:18;;;;;;;3.90;0.98;;;14.90;99.90;;;;;;8222314;28;20034;-91
2022/09/20 11:45:20;;;;;;;4.18;1.00;;;14.90;99.90;;;;;;8227715;28;20474;-91
2022/09/20 11:49:26;;;;;;;3.50;0.93;;;14.70;99.90;;;;;;8230360;28;20030;-90
2022/09/20 11:53:26;;;;;;;2.45;1.08;;;15.70;99.90;;;;;;8229790;28;20791;-91
2022/09/20 11:57:27;;;;;;;4.68;1.17;;;16.80;99.90;;;;;;8231824;28;20057;-90
2022/09/20 12:01:41;;;;;;;2.50;0.73;;;16.50;99.90;;;;;;8224020;28;20026;-91
2022/09/20 12:05:42;;;;;;;5.28;1.00;;;15.40;99.90;;;;;;8232128;28;20201;-90
2022/09/20 12:09:52;;;;;;;4.50;0.90;;;15.40;99.90;;;;;;8226405;28;20039;-90
2022/09/20 12:14:19;;;;;;;2.38;0.82;;;16.80;99.90;;;;;;8229916;28;20019;-90
2022/09/20 12:18:30;;;;;;;6.50;1.20;;;17.40;99.90;;;;;;8220498;28;20376;-90
2022/09/20 12:22:31;;;;;;;1.73;0.70;;;17.60;99.90;;;;;;8231964;28;20034;-90
2022/09/20 12:26:40;;;;;;;3.25;1.00;;;18.10;99.90;;;;;;8231020;28;20033;-90
2022/09/20 12:30:41;;;;;;;3.80;1.08;;;17.90;99.90;;;;;;8221061;28;20602;-91
2022/09/20 12:34:41;;;;;;;2.45;0.90;;;17.60;99.90;;;;;;8234924;28;20112;-90
2022/09/20 12:38:47;;;;;;;1.98;0.80;;;17.00;99.90;;;;;;8228546;28;20026;-89
2022/09/20 12:42:55;;;;;;;2.88;1.05;;;16.70;99.90;;;;;;8231292;28;20026;-91
2022/09/20 12:46:58;;;;;;;4.18;1.00;;;17.60;99.90;;;;;;8230718;28;20033;-90
2022/09/20 12:56:06;;;;;;;0.95;0.65;;;17.10;99.90;;;;;;8256397;28;20100;-90
2022/09/20 13:00:26;;;;;;;3.88;0.93;;;16.00;99.90;;;;;;8228028;28;20046;-91
2022/09/20 13:04:52;;;;;;;2.53;1.00;;;15.00;99.90;;;;;;8225055;28;20663;-91
2022/09/20 13:08:59;;;;;;;2.10;0.70;;;15.10;99.90;;;;;;8218435;28;20519;-90
2022/09/20 13:13:12;;;;;;;0.50;0.50;;;16.00;99.90;;;;;;8235444;28;20018;-90
2022/09/20 13:17:23;;;;;;;2.05;0.82;;;14.40;99.90;;;;;;8232743;28;20479;-90
2022/09/20 13:21:26;;;;;;;1.75;0.82;;;14.20;99.90;;;;;;8220143;28;20027;-90
2022/09/20 13:25:27;;;;;;;3.03;0.73;;;15.70;99.90;;;;;;8226487;28;20037;-91
2022/09/20 13:29:43;;;;;;;1.50;0.60;;;17.50;99.90;;;;;;8228146;28;20035;-90
2022/09/20 13:33:44;;;;;;;5.07;1.10;;;19.00;98.60;;;;;;8228162;28;20022;-90
2022/09/20 13:37:57;;;;;;;2.60;0.90;;;19.30;96.50;;;;;;8231694;28;20502;-91
2022/09/20 13:42:07;;;;;;;3.75;1.17;;;18.00;98.00;;;;;;8214287;28;20069;-91
2022/09/20 13:46:17;;;;;;;2.47;1.00;;;16.90;99.90;;;;;;8224684;28;20042;-90
2022/09/20 13:50:33;;;;;;;3.13;0.80;;;19.80;99.90;;;;;;8217760;28;20175;-91
2022/09/20 13:54:34;;;;;;;2.53;0.90;;;19.40;93.40;;;;;;8210481;28;20031;-90
2022/09/20 13:58:36;;;;;;;2.00;0.52;;;19.30;95.90;;;;;;8227654;28;20035;-91
2022/09/20 14:02:38;;;;;;;5.13;1.17;;;20.00;93.50;;;;;;8221544;28;20027;-90
2022/09/20 14:06:41;;;;;;;2.80;0.90;;;21.40;90.20;;;;;;8216548;28;20034;-91
2022/09/20 14:10:44;;;;;;;2.63;0.70;;;21.20;86.40;;;;;;8210854;28;20027;-90
2022/09/20 14:14:45;;;;;;;4.20;1.02;;;22.70;84.10;;;;;;8226715;28;20085;-91
2022/09/20 14:18:47;;;;;;;2.97;0.85;;;21.70;89.40;;;;;;8227865;28;20027;-91
2022/09/20 14:22:48;;;;;;;1.83;0.70;;;18.90;89.90;;;;;;8220320;28;20438;-91
2022/09/20 14:27:14;;;;;;;2.40;0.70;;;17.80;93.50;;;;;;8213622;28;20035;-89
2022/09/20 14:31:17;;;;;;;3.03;0.70;;;19.10;86.70;;;;;;8217945;28;20462;-91
2022/09/20 14:35:20;;;;;;;4.72;0.80;;;20.20;84.80;;;;;;8233462;28;20117;-91
2022/09/20 14:39:21;;;;;;;2.55;0.93;;;19.90;81.70;;;;;;8231359;28;20117;-90
2022/09/20 14:43:33;;;;;;;2.55;0.65;;;21.20;78.30;;;;;;8221406;28;20037;-91
2022/09/20 14:47:51;;;;;;;1.85;0.75;;;22.00;76.20;;;;;;8228468;28;20022;-91
2022/09/20 14:51:53;;;;;;;1.40;0.60;;;21.10;79.70;;;;;;8219100;28;20162;-91
2022/09/20 14:55:57;;;;;;;1.52;0.70;;;20.20;77.60;;;;;;8227769;28;20030;-91
2022/09/20 15:00:06;;;;;;;2.10;0.90;;;20.20;82.20;;;;;;8226639;28;20127;-91
2022/09/20 15:04:15;;;;;;;3.83;0.90;;;18.90;84.30;;;;;;8223772;28;20121;-90
2022/09/20 15:08:18;;;;;;;2.30;0.90;;;15.70;90.40;;;;;;8220007;28;20431;-91
2022/09/20 15:12:20;;;;;;;1.42;1.00;;;14.80;94.60;;;;;;8224636;28;20472;-91
2022/09/20 15:16:21;;;;;;;3.28;0.75;;;15.30;95.20;;;;;;8219207;28;20069;-90
2022/09/20 15:20:21;;;;;;;1.70;0.80;;;15.30;95.70;;;;;;8230858;28;20026;-90
2022/09/20 15:24:22;;;;;;;1.05;0.80;;;14.70;95.60;;;;;;8216832;28;20038;-90
2022/09/20 15:28:22;;;;;;;1.63;1.00;;;13.80;97.40;;;;;;8307616;23;20063;-83
2022/09/20 15:32:23;;;;;;;2.58;0.65;;;13.60;99.80;;;;;;8321173;28;20060;-82
2022/09/20 15:36:30;;;;;;;1.73;0.73;;;13.40;99.90;;;;;;8323537;28;20391;-83
2022/09/20 15:40:31;;;;;;;3.80;0.80;;;13.60;99.90;;;;;;8328457;28;20017;-82
2022/09/20 15:44:32;;;;;;;2.53;0.60;;;13.70;99.90;;;;;;8337535;28;20025;-83
2022/09/20 15:48:32;;;;;;;2.42;1.13;;;13.80;99.90;;;;;;8313628;28;20099;-82
2022/09/20 15:52:39;;;;;;;2.15;0.68;;;13.60;99.90;;;;;;8314942;28;20025;-83
2022/09/20 15:56:40;;;;;;;2.15;0.70;;;13.60;99.90;;;;;;8312308;28;20671;-83
2022/09/20 16:00:41;;;;;;;1.50;0.82;;;13.50;99.90;;;;;;8300587;28;20095;-82
2022/09/20 16:04:42;;;;;;;2.08;0.63;;;13.50;99.90;;;;;;8304507;28;20049;-83
2022/09/20 16:08:42;;;;;;;2.92;1.00;;;13.40;99.90;;;;;;8318451;28;20033;-83
2022/09/20 16:12:43;;;;;;;0.80;0.70;;;13.30;99.90;;;;;;8304031;28;20478;-82
2022/09/20 16:16:43;;;;;;;2.63;1.00;;;13.00;99.90;;;;;;8306439;28;20030;-83
2022/09/20 16:20:44;;;;;;;1.92;0.75;;;12.80;99.90;;;;;;8329992;28;20032;-83
2022/09/20 16:24:45;;;;;;;1.35;1.00;;;12.50;99.90;;;;;;8332878;28;20025;-83
2022/09/20 16:28:46;;;;;;;2.55;1.10;;;12.50;99.90;;;;;;8328148;28;20034;-83
2022/09/20 16:32:46;;;;;;;3.45;1.10;;;12.60;99.90;;;;;;8304116;28;20052;-85
2022/09/20 16:36:50;;;;;;;3.88;1.30;;;12.60;99.90;;;;;;8303412;28;20031;-84
2022/09/20 16:40:50;;;;;;;1.58;1.25;;;12.50;99.90;;;;;;8293372;28;20022;-83
2022/09/20 16:44:51;;;;;;;3.55;1.40;;;12.40;99.90;;;;;;8320752;28;20500;-83
2022/09/20 16:48:53;;;;;;;3.00;1.52;;;12.30;99.90;;;;;;8311524;28;20478;-83
2022/09/20 16:52:54;;;;;;;1.90;1.50;;;12.20;99.90;;;;;;8309465;28;20017;-83
2022/09/20 16:56:55;;;;;;;4.53;1.70;;;11.80;99.90;;;;;;8316693;28;20482;-84
2022/09/20 17:01:06;;;;;;;1.58;1.25;;;11.50;99.90;;;;;;8339940;28;20033;-84
2022/09/20 17:05:07;;;;;;;3.17;1.90;;;11.10;99.90;;;;;;8321321;28;20185;-84
2022/09/20 17:09:08;;;;;;;2.78;1.80;;;10.70;99.90;;;;;;8314907;28;20057;-83
2022/09/20 17:13:09;;;;;;;3.72;2.00;;;10.10;99.90;;;;;;8324712;28;20035;-83
2022/09/20 17:17:09;;;;;;;2.17;1.50;;;9.70;99.90;;;;;;8304897;28;20037;-83
2022/09/20 17:21:15;;;;;;;2.33;1.75;;;9.30;99.90;;;;;;8316154;28;20109;-83
2022/09/20 17:25:15;;;;;;;3.05;2.08;;;9.10;99.90;;;;;;8320255;28;20025;-84
2022/09/20 17:29:18;;;;;;;3.05;2.13;;;9.00;99.90;;;;;;8308380;28;20032;-83
2022/09/20 17:33:18;;;;;;;6.65;2.40;;;8.70;99.90;;;;;;8297275;28;20033;-83
2022/09/20 17:37:19;;;;;;;3.60;2.20;;;8.50;99.90;;;;;;8300110;28;20036;-82
2022/09/20 17:41:20;;;;;;;3.63;2.40;;;8.50;99.90;;;;;;8296667;28;20037;-82
2022/09/20 17:45:21;;;;;;;5.95;2.33;;;8.40;99.90;;;;;;8328410;28;20196;-82
2022/09/20 17:49:22;;;;;;;3.42;2.00;;;8.60;99.90;;;;;;8319544;28;20017;-81
2022/09/20 17:53:23;;;;;;;4.25;2.40;;;8.60;99.90;;;;;;8316678;28;20029;-83
2022/09/20 17:57:23;;;;;;;9.95;2.63;;;8.80;99.90;;;;;;8316359;28;20051;-83
2022/09/20 18:01:26;;;;;;;5.32;2.42;;;8.80;99.90;;;;;;8308986;28;20033;-83
2022/09/20 18:05:26;;;;;;;5.60;2.40;;;8.80;99.90;;;;;;8331747;28;20029;-83
2022/09/20 18:09:27;;;;;;;3.83;2.47;;;8.30;99.90;;;;;;8335909;28;20486;-83
2022/09/20 18:13:29;;;;;;;6.25;2.88;;;8.10;99.90;;;;;;8331881;28;20022;-83
2022/09/20 18:17:29;;;;;;;4.57;2.72;;;7.90;99.90;;;;;;8313665;28;20029;-83
2022/09/20 18:21:32;;;;;;;4.80;2.92;;;7.70;99.90;;;;;;8332534;28;20041;-83
2022/09/20 18:26:20;;;;;;;6.40;2.97;;;7.60;99.90;;;;;;8318375;28;20049;-83
2022/09/20 18:29:50;;;;;;;4.30;2.13;;;7.60;99.90;;;;;;8897409;22;20054;-83
2022/09/20 18:33:55;;;;;;;6.32;2.80;;;7.60;99.90;;;;;;8222486;28;20025;-83
2022/09/20 18:37:55;;;;;;;5.25;3.10;;;7.30;99.90;;;;;;8227940;28;20272;-83
2022/09/20 18:45:58;;;;;;;6.13;3.50;;;6.80;99.90;;;;;;8224209;28;20047;-83
2022/09/20 18:50:00;;;;;;;5.30;3.55;;;6.60;99.90;;;;;;8228927;28;20050;-82
2022/09/20 18:54:00;;;;;;;5.82;4.13;;;6.60;99.90;;;;;;8229489;28;20023;-83
2022/09/20 18:58:01;;;;;;;8.15;4.47;;;6.60;99.90;;;;;;8231048;28;20023;-83
2022/09/20 19:02:23;;;;;;;8.48;4.43;;;6.60;99.90;;;;;;8228363;28;20018;-82
2022/09/20 19:06:29;;;;;;;6.82;4.40;;;6.70;99.90;;;;;;8230162;28;20042;-82
2022/09/20 19:11:09;;;;;;;6.70;4.18;;;6.80;99.90;;;;;;8229014;28;20132;-81
2022/09/20 19:15:28;;;;;;;7.38;4.45;;;6.80;99.90;;;;;;8200185;28;20512;-82
2022/09/20 19:19:47;;;;;;;8.88;4.25;;;6.80;99.90;;;;;;8230389;28;20030;-82
2022/09/20 19:24:10;;;;;;;7.70;4.53;;;6.70;99.90;;;;;;8225818;28;20033;-83
2022/09/20 19:28:13;;;;;;;9.00;4.88;;;6.60;99.90;;;;;;8229914;28;20037;-82
2022/09/20 19:32:17;;;;;;;10.18;5.10;;;6.50;99.90;;;;;;8224873;28;20388;-82
2022/09/20 19:36:20;;;;;;;9.43;5.00;;;6.60;99.90;;;;;;8231832;28;20038;-82
2022/09/20 19:40:33;;;;;;;10.35;5.63;;;6.70;99.90;;;;;;8231526;28;20046;-82
2022/09/20 19:44:49;;;;;;;7.07;4.43;;;6.70;99.90;;;;;;8228741;28;20046;-79
2022/09/20 19:49:13;;;;;;;10.90;5.95;;;6.70;99.90;;;;;;8224667;28;20037;-79
2022/09/20 19:53:16;;;;;;;10.55;6.57;;;6.60;99.90;;;;;;8218190;28;20038;-79
2022/09/20 19:57:20;;;;;;;12.57;6.60;;;6.80;99.90;;;;;;8224202;28;20533;-79
2022/09/20 20:01:22;;;;;;;10.27;6.38;;;6.80;99.90;;;;;;8218040;28;20035;-80
2022/09/20 20:05:27;;;;;;;11.13;6.85;;;6.80;99.90;;;;;;8225303;28;20083;-80
2022/09/20 20:09:51;;;;;;;15.52;7.43;;;6.80;99.90;;;;;;8225243;28;20038;-79
2022/09/20 20:14:06;;;;;;;11.13;5.30;;;6.80;99.90;;;;;;8222731;28;20034;-78
2022/09/20 20:18:43;;;;;;;8.50;5.20;;;7.00;99.90;;;;;;8224699;28;20085;-79
2022/09/20 20:23:02;;;;;;;8.40;5.65;;;6.80;99.90;;;;;;8218598;28;20037;-80
2022/09/20 20:27:02;;;;;;;10.23;5.38;;;6.70;99.90;;;;;;8224492;28;20045;-79
2022/09/20 20:31:05;;;;;;;8.23;5.78;;;6.50;99.90;;;;;;8220855;28;20050;-79
2022/09/20 20:35:06;;;;;;;8.32;5.63;;;6.30;99.90;;;;;;8230828;28;20030;-80
2022/09/20 20:39:06;;;;;;;10.40;6.40;;;6.10;99.90;;;;;;8225391;28;20145;-80
2022/09/20 20:43:08;;;;;;;8.77;5.45;;;6.00;99.90;;;;;;8233377;28;20038;-80
2022/09/20 20:47:08;;;;;;;7.72;4.95;;;5.90;99.90;;;;;;8234227;28;20058;-80
2022/09/20 20:51:12;;;;;;;10.32;5.65;;;5.70;99.90;;;;;;8235618;28;20105;-80
2022/09/20 20:55:12;;;;;;;11.55;6.03;;;5.60;99.90;;;;;;8234909;28;20026;-79
2022/09/20 20:59:14;;;;;;;12.20;5.55;;;5.50;99.90;;;;;;8233456;28;20038;-80
2022/09/20 21:03:15;;;;;;;8.85;5.28;;;5.60;99.90;;;;;;8236945;28;20037;-80
2022/09/20 21:07:16;;;;;;;8.43;5.13;;;5.40;99.90;;;;;;8236663;28;20031;-80
2022/09/20 21:11:22;;;;;;;7.35;4.97;;;5.30;99.90;;;;;;8235152;28;20027;-80
2022/09/20 21:15:22;;;;;;;8.20;4.47;;;5.20;99.90;;;;;;8236655;28;20038;-80
2022/09/20 21:19:23;;;;;;;8.63;5.00;;;5.10;99.90;;;;;;8233784;28;20050;-80
2022/09/20 21:23:23;;;;;;;8.05;5.45;;;5.20;99.90;;;;;;8234352;28;20035;-80
2022/09/20 21:27:25;;;;;;;9.65;5.03;;;5.00;99.90;;;;;;8237284;28;20035;-80
2022/09/20 21:31:27;;;;;;;9.65;5.50;;;4.80;99.90;;;;;;8232859;28;20035;-81
2022/09/20 21:35:28;;;;;;;8.23;5.03;;;4.70;99.90;;;;;;8233642;28;20035;-80
2022/09/20 21:39:28;;;;;;;7.43;4.32;;;4.50;99.90;;;;;;8232504;28;20130;-78
2022/09/20 21:43:29;;;;;;;8.52;4.70;;;4.40;99.90;;;;;;8232395;28;20401;-80
2022/09/20 21:47:30;;;;;;;8.45;4.70;;;4.40;99.90;;;;;;8232322;28;20138;-79
2022/09/20 21:51:31;;;;;;;7.28;4.47;;;4.40;99.90;;;;;;8233407;28;20023;-80
2022/09/20 21:55:33;;;;;;;7.38;4.45;;;4.40;99.90;;;;;;8232129;28;20440;-80
2022/09/20 21:59:33;;;;;;;8.77;4.10;;;4.30;99.90;;;;;;8231597;28;20027;-79
2022/09/20 22:03:36;;;;;;;7.20;4.47;;;4.10;99.90;;;;;;8232676;28;20503;-80
2022/09/20 22:07:36;;;;;;;8.23;5.25;;;4.10;99.90;;;;;;8231048;28;20117;-80
2022/09/20 22:11:43;;;;;;;10.00;4.55;;;4.20;99.90;;;;;;8227162;28;20027;-80